createdAt,value
2022-11-29T00:01:39.496Z,66.49
2022-11-29T00:04:08.989Z,66.42
2022-11-29T00:06:37.438Z,66.43
2022-11-29T00:09:07.681Z,66.41
2022-11-29T00:11:55.807Z,66.39
2022-11-29T00:14:24.738Z,66.30
2022-11-29T00:16:53.915Z,66.24
2022-11-29T00:19:23.829Z,66.20
2022-11-29T00:21:52.317Z,66.38
2022-11-29T00:24:20.652Z,66.36
2022-11-29T00:26:48.923Z,66.38
2022-11-29T00:29:17.004Z,66.36
2022-11-29T00:31:45.588Z,66.34
2022-11-29T00:34:14.118Z,66.40
2022-11-29T00:36:43.520Z,66.40
2022-11-29T00:39:12.801Z,66.39
2022-11-29T00:41:41.327Z,66.27
2022-11-29T00:44:09.605Z,66.27
2022-11-29T00:46:38.738Z,66.20
2022-11-29T00:49:07.103Z,66.23
2022-11-29T00:51:35.247Z,66.30
2022-11-29T00:54:04.857Z,66.30
2022-11-29T00:56:32.937Z,66.30
2022-11-29T00:59:00.968Z,66.30
2022-11-29T01:01:29.100Z,66.15
2022-11-29T01:03:57.120Z,66.11
2022-11-29T01:06:25.150Z,66.11
2022-11-29T01:08:53.977Z,66.17
2022-11-29T01:11:25.496Z,66.19
2022-11-29T01:13:57.426Z,66.24
2022-11-29T01:16:26.177Z,66.27
2022-11-29T01:18:54.426Z,66.32
2022-11-29T01:21:24.799Z,66.33
2022-11-29T01:23:54.929Z,66.40
2022-11-29T01:26:26.858Z,66.20
2022-11-29T01:28:56.568Z,66.29
2022-11-29T01:31:26.642Z,66.37
2022-11-29T01:33:55.904Z,66.31
2022-11-29T01:36:24.668Z,66.29
2022-11-29T01:38:53.396Z,66.27
2022-11-29T01:41:23.309Z,66.25
2022-11-29T01:44:04.648Z,66.03
2022-11-29T01:46:34.733Z,66.33
2022-11-29T01:49:06.368Z,66.38
2022-11-29T01:51:36.985Z,66.37
2022-11-29T01:54:05.745Z,66.40
2022-11-29T01:56:35.320Z,66.51
2022-11-29T01:59:08.233Z,66.41
2022-11-29T02:01:37.707Z,66.49
2022-11-29T02:04:06.493Z,66.49
2022-11-29T02:06:35.482Z,66.52
2022-11-29T02:09:03.634Z,66.56
2022-11-29T02:11:50.092Z,66.20
2022-11-29T02:14:36.936Z,66.10
2022-11-29T02:17:12.780Z,66.24
2022-11-29T02:20:19.051Z,66.14
2022-11-29T02:22:52.597Z,66.40
2022-11-29T02:25:41.077Z,66.16
2022-11-29T02:28:44.124Z,66.20
2022-11-29T02:31:54.892Z,66.30
2022-11-29T02:34:39.172Z,66.41
2022-11-29T02:37:24.552Z,66.45
2022-11-29T02:40:21.291Z,66.42
2022-11-29T02:43:15.094Z,66.41
2022-11-29T02:46:05.042Z,66.34
2022-11-29T02:48:53.935Z,66.37
2022-11-29T02:51:28.883Z,66.49
2022-11-29T02:54:01.378Z,66.45
2022-11-29T02:56:36.085Z,66.46
2022-11-29T02:59:10.589Z,66.55
2022-11-29T03:01:46.459Z,66.53
2022-11-29T03:04:22.553Z,66.42
2022-11-29T03:06:59.628Z,66.27
2022-11-29T03:09:37.708Z,66.32
2022-11-29T03:12:18.587Z,66.33
2022-11-29T03:14:57.049Z,66.43
2022-11-29T03:17:34.037Z,66.33
2022-11-29T03:20:15.424Z,66.40
2022-11-29T03:22:55.615Z,66.38
2022-11-29T03:25:30.212Z,66.58
2022-11-29T03:28:02.723Z,66.53
2022-11-29T03:30:33.259Z,66.54
2022-11-29T03:33:08.220Z,66.45
2022-11-29T03:35:41.917Z,66.52
2022-11-29T03:38:20.185Z,66.33
2022-11-29T03:40:56.135Z,66.47
2022-11-29T03:43:31.353Z,66.44
2022-11-29T03:46:04.236Z,66.49
2022-11-29T03:48:37.821Z,66.46
2022-11-29T03:51:13.321Z,66.62
2022-11-29T03:53:49.136Z,66.62
2022-11-29T03:56:39.040Z,66.55
2022-11-29T03:59:16.019Z,66.80
2022-11-29T04:02:05.288Z,66.77
2022-11-29T04:05:09.878Z,66.67
2022-11-29T04:07:49.142Z,66.33
2022-11-29T04:10:37.830Z,66.67
2022-11-29T04:13:42.580Z,66.75
2022-11-29T04:16:54.577Z,66.76
2022-11-29T04:20:26.744Z,66.78
2022-11-29T04:23:22.717Z,66.71
2022-11-29T04:26:12.953Z,66.64
2022-11-29T04:29:09.411Z,66.74
2022-11-29T04:31:46.392Z,66.91
2022-11-29T04:34:30.241Z,66.81
2022-11-29T04:37:23.214Z,66.83
2022-11-29T04:40:17.308Z,66.97
2022-11-29T04:43:11.881Z,66.94
2022-11-29T04:46:06.583Z,66.90
2022-11-29T04:48:56.098Z,66.91
2022-11-29T04:51:37.825Z,66.92
2022-11-29T04:54:14.291Z,67.14
2022-11-29T04:56:48.145Z,67.06
2022-11-29T04:59:26.009Z,66.97
2022-11-29T05:02:03.442Z,66.97
2022-11-29T05:04:38.469Z,67.05
2022-11-29T05:07:12.805Z,66.96
2022-11-29T05:09:52.897Z,66.78
2022-11-29T05:12:30.379Z,66.85
2022-11-29T05:15:20.192Z,66.88
2022-11-29T05:18:00.360Z,66.76
2022-11-29T05:20:40.088Z,66.65
2022-11-29T05:23:27.443Z,66.93
2022-11-29T05:26:01.272Z,67.00
2022-11-29T05:28:38.981Z,66.88
2022-11-29T05:31:26.270Z,66.63
2022-11-29T05:34:12.320Z,66.90
2022-11-29T05:36:47.696Z,67.12
2022-11-29T05:39:29.931Z,67.09
2022-11-29T05:42:21.224Z,67.08
2022-11-29T05:44:54.763Z,67.25
2022-11-29T05:47:31.805Z,66.97
2022-11-29T05:50:06.872Z,67.07
2022-11-29T05:52:45.013Z,66.98
2022-11-29T05:55:26.190Z,66.95
2022-11-29T05:57:58.660Z,67.30
2022-11-29T06:00:29.452Z,67.30
2022-11-29T06:03:04.525Z,67.10
2022-11-29T06:05:37.768Z,67.10
2022-11-29T06:08:11.628Z,67.10
2022-11-29T06:10:42.272Z,67.13
2022-11-29T06:13:21.959Z,66.91
2022-11-29T06:16:12.526Z,66.70
2022-11-29T06:19:09.348Z,66.99
2022-11-29T06:21:41.435Z,67.15
2022-11-29T06:24:34.422Z,67.02
2022-11-29T06:27:22.955Z,67.11
2022-11-29T06:29:57.800Z,67.36
2022-11-29T06:32:36.115Z,67.22
2022-11-29T06:35:10.396Z,67.20
2022-11-29T06:37:41.536Z,67.29
2022-11-29T06:40:13.720Z,67.28
2022-11-29T06:42:41.760Z,67.36
2022-11-29T06:45:16.819Z,67.38
2022-11-29T06:47:47.592Z,67.39
2022-11-29T06:50:33.396Z,67.32
2022-11-29T06:53:08.698Z,67.36
2022-11-29T06:55:45.388Z,67.33
2022-11-29T06:58:34.446Z,67.21
2022-11-29T07:01:13.840Z,67.33
2022-11-29T07:04:04.113Z,67.03
2022-11-29T07:06:35.927Z,67.27
2022-11-29T07:09:11.657Z,67.36
2022-11-29T07:11:40.588Z,67.36
2022-11-29T07:14:09.844Z,67.46
2022-11-29T07:16:44.543Z,67.30
2022-11-29T07:19:20.339Z,67.16
2022-11-29T07:22:00.567Z,67.01
2022-11-29T07:24:40.136Z,66.93
2022-11-29T07:27:18.483Z,67.23
2022-11-29T07:30:01.133Z,67.13
2022-11-29T07:32:38.036Z,67.43
2022-11-29T07:35:11.304Z,67.33
2022-11-29T07:37:53.912Z,67.01
2022-11-29T07:40:31.980Z,67.07
2022-11-29T07:43:18.015Z,67.29
2022-11-29T07:45:46.576Z,67.39
2022-11-29T07:48:17.212Z,67.43
2022-11-29T07:50:46.108Z,67.65
2022-11-29T07:53:19.260Z,67.38
2022-11-29T07:55:47.827Z,67.59
2022-11-29T07:58:17.751Z,67.53
2022-11-29T08:00:46.421Z,67.55
2022-11-29T08:03:14.884Z,67.26
2022-11-29T08:05:46.744Z,67.43
2022-11-29T08:08:15.250Z,67.52
2022-11-29T08:10:44.741Z,67.65
2022-11-29T08:13:12.828Z,67.59
2022-11-29T08:15:46.049Z,67.38
2022-11-29T08:18:14.820Z,67.46
2022-11-29T08:20:42.896Z,67.38
2022-11-29T08:23:13.011Z,67.37
2022-11-29T08:25:41.053Z,67.25
2022-11-29T08:28:10.722Z,67.14
2022-11-29T08:30:38.862Z,67.23
2022-11-29T08:33:07.249Z,67.32
2022-11-29T08:35:35.989Z,67.30
2022-11-29T08:38:05.086Z,67.19
2022-11-29T08:40:33.178Z,67.29
2022-11-29T08:43:01.236Z,67.35
2022-11-29T08:45:30.746Z,67.39
2022-11-29T08:47:58.749Z,67.46
2022-11-29T08:50:26.828Z,67.61
2022-11-29T08:53:12.224Z,67.46
2022-11-29T08:55:42.958Z,67.41
2022-11-29T08:58:13.880Z,67.30
2022-11-29T09:00:45.630Z,67.32
2022-11-29T09:03:31.441Z,67.36
2022-11-29T09:05:59.720Z,67.47
2022-11-29T09:08:27.800Z,67.27
2022-11-29T09:10:56.273Z,67.39
2022-11-29T09:13:24.454Z,67.23
2022-11-29T09:15:53.801Z,67.13
2022-11-29T09:18:22.704Z,67.26
2022-11-29T09:20:50.713Z,67.30
2022-11-29T09:23:18.700Z,67.18
2022-11-29T09:25:49.981Z,67.15
2022-11-29T09:28:17.973Z,67.21
2022-11-29T09:30:45.966Z,67.24
2022-11-29T09:33:15.359Z,67.38
2022-11-29T09:35:43.558Z,67.36
2022-11-29T09:38:12.512Z,67.24
2022-11-29T09:40:49.357Z,67.27
2022-11-29T09:43:27.680Z,67.13
2022-11-29T09:46:01.564Z,67.13
2022-11-29T09:48:58.706Z,67.05
2022-11-29T09:51:31.550Z,67.08
2022-11-29T09:54:12.432Z,67.01
2022-11-29T09:56:43.445Z,67.25
2022-11-29T09:59:14.464Z,67.07
2022-11-29T10:01:47.531Z,67.14
2022-11-29T10:04:20.225Z,66.89
2022-11-29T10:06:56.664Z,67.01
2022-11-29T10:09:33.880Z,67.26
2022-11-29T10:12:11.174Z,67.23
2022-11-29T10:14:46.053Z,67.18
2022-11-29T10:17:25.729Z,66.97
2022-11-29T10:20:00.568Z,66.87
2022-11-29T10:22:37.698Z,66.85
2022-11-29T10:25:10.420Z,66.94
2022-11-29T10:27:41.481Z,66.73
2022-11-29T10:30:16.447Z,66.52
2022-11-29T10:32:47.826Z,66.91
2022-11-29T10:35:19.897Z,66.85
2022-11-29T10:38:07.757Z,67.04
2022-11-29T10:40:38.993Z,66.88
2022-11-29T10:43:07.066Z,66.78
2022-11-29T10:45:39.057Z,66.81
2022-11-29T10:48:11.685Z,66.75
2022-11-29T10:50:44.037Z,66.72
2022-11-29T10:53:14.755Z,66.71
2022-11-29T10:55:47.961Z,66.53
2022-11-29T10:58:22.103Z,66.73
2022-11-29T11:00:57.290Z,66.48
2022-11-29T11:03:38.604Z,66.45
2022-11-29T11:06:14.753Z,66.57
2022-11-29T11:08:44.805Z,66.66
2022-11-29T11:11:14.236Z,66.56
2022-11-29T11:13:42.661Z,66.53
2022-11-29T11:16:17.708Z,66.31
2022-11-29T11:18:47.984Z,66.36
2022-11-29T11:21:21.091Z,66.28
2022-11-29T11:24:02.987Z,66.33
2022-11-29T11:26:44.270Z,66.15
2022-11-29T11:29:19.326Z,66.27
2022-11-29T11:31:53.964Z,66.20
2022-11-29T11:34:28.268Z,66.37
2022-11-29T11:37:19.522Z,66.32
2022-11-29T11:39:49.833Z,66.35
2022-11-29T11:42:38.550Z,66.46
2022-11-29T11:45:24.176Z,66.19
2022-11-29T11:47:53.969Z,66.62
2022-11-29T11:50:29.875Z,66.37
2022-11-29T11:53:01.885Z,66.52
2022-11-29T11:55:41.611Z,66.27
2022-11-29T11:58:18.997Z,66.21
2022-11-29T12:01:05.920Z,66.36
2022-11-29T12:03:44.920Z,66.14
2022-11-29T12:06:39.363Z,66.04
2022-11-29T12:09:18.697Z,66.01
2022-11-29T12:11:55.236Z,65.94
2022-11-29T12:14:31.356Z,66.10
2022-11-29T12:17:06.430Z,66.35
2022-11-29T12:19:42.242Z,66.17
2022-11-29T12:22:18.974Z,66.10
2022-11-29T12:24:55.026Z,66.27
2022-11-29T12:27:23.278Z,66.43
2022-11-29T12:29:51.716Z,66.33
2022-11-29T12:32:38.297Z,66.24
2022-11-29T12:35:43.224Z,66.25
2022-11-29T12:38:28.723Z,65.90
2022-11-29T12:41:08.024Z,66.24
2022-11-29T12:43:50.720Z,66.11
2022-11-29T12:46:25.939Z,66.10
2022-11-29T12:49:02.555Z,65.88
2022-11-29T12:51:40.982Z,66.31
2022-11-29T12:54:32.587Z,66.15
2022-11-29T12:57:09.016Z,66.30
2022-11-29T13:00:00.677Z,66.27
2022-11-29T13:02:41.719Z,66.07
2022-11-29T13:05:17.582Z,66.33
2022-11-29T13:07:59.166Z,66.36
2022-11-29T13:10:56.842Z,66.31
2022-11-29T13:13:37.093Z,66.19
2022-11-29T13:16:22.063Z,66.46
2022-11-29T13:18:59.693Z,66.53
2022-11-29T13:21:33.133Z,66.36
2022-11-29T13:24:09.226Z,66.46
2022-11-29T13:26:39.625Z,66.46
2022-11-29T13:29:14.989Z,66.30
2022-11-29T13:31:44.466Z,66.33
2022-11-29T13:34:16.446Z,66.41
2022-11-29T13:36:53.012Z,66.28
2022-11-29T13:39:33.887Z,66.09
2022-11-29T13:42:09.330Z,66.13
2022-11-29T13:44:45.955Z,66.16
2022-11-29T13:47:16.227Z,66.43
2022-11-29T13:49:53.906Z,66.20
2022-11-29T13:52:40.588Z,66.32
2022-11-29T13:55:23.066Z,66.11
2022-11-29T13:58:15.468Z,66.45
2022-11-29T14:00:52.196Z,66.40
2022-11-29T14:03:42.000Z,66.40
2022-11-29T14:06:15.861Z,66.51
2022-11-29T14:09:18.766Z,66.35
2022-11-29T14:11:50.195Z,66.57
2022-11-29T14:14:27.038Z,66.24
2022-11-29T14:17:00.259Z,66.42
2022-11-29T14:19:33.350Z,66.47
2022-11-29T14:22:30.408Z,66.20
2022-11-29T14:25:42.910Z,66.32
2022-11-29T14:28:06.020Z,66.40
2022-11-29T14:30:51.778Z,66.11
2022-11-29T14:33:35.756Z,66.04
2022-11-29T14:36:24.371Z,65.98
2022-11-29T14:39:01.629Z,66.02
2022-11-29T14:41:39.808Z,66.32
2022-11-29T14:44:19.615Z,65.86
2022-11-29T14:46:48.859Z,66.04
2022-11-29T14:49:23.922Z,65.93
2022-11-29T14:52:21.552Z,65.79
2022-11-29T14:54:56.627Z,65.97
2022-11-29T14:57:52.543Z,65.88
2022-11-29T15:00:23.089Z,65.94
2022-11-29T15:02:54.044Z,65.88
2022-11-29T15:05:30.459Z,65.85
2022-11-29T15:08:10.528Z,65.43
2022-11-29T15:10:43.267Z,65.69
2022-11-29T15:13:14.763Z,65.82
2022-11-29T15:16:01.835Z,65.41
2022-11-29T15:19:04.621Z,65.63
2022-11-29T15:21:41.001Z,65.75
2022-11-29T15:24:13.280Z,65.82
2022-11-29T15:26:56.452Z,65.56
2022-11-29T15:29:24.862Z,65.86
2022-11-29T15:31:55.326Z,65.82
2022-11-29T15:34:31.529Z,65.61
2022-11-29T15:37:01.497Z,65.89
2022-11-29T15:39:33.916Z,65.76
2022-11-29T15:42:03.498Z,65.78
2022-11-29T15:44:33.316Z,65.71
2022-11-29T15:47:16.658Z,65.39
2022-11-29T15:49:44.753Z,65.49
2022-11-29T15:52:20.741Z,65.11
2022-11-29T15:54:53.809Z,65.37
2022-11-29T15:57:26.228Z,65.38
2022-11-29T15:59:57.613Z,65.46
2022-11-29T16:02:28.767Z,65.37
2022-11-29T16:05:00.762Z,65.37
2022-11-29T16:07:32.455Z,65.52
2022-11-29T16:10:05.041Z,65.55
2022-11-29T16:12:33.493Z,65.68
2022-11-29T16:15:02.452Z,65.62
2022-11-29T16:17:32.269Z,65.56
2022-11-29T16:20:24.350Z,65.56
2022-11-29T16:23:12.797Z,65.60
2022-11-29T16:25:54.441Z,65.34
2022-11-29T16:28:22.696Z,65.61
2022-11-29T16:30:50.858Z,65.59
2022-11-29T16:33:23.214Z,65.50
2022-11-29T16:35:52.548Z,65.50
2022-11-29T16:38:23.868Z,65.28
2022-11-29T16:41:04.009Z,65.40
2022-11-29T16:43:57.495Z,65.32
2022-11-29T16:46:38.471Z,65.40
2022-11-29T16:49:33.496Z,65.41
2022-11-29T16:52:01.987Z,65.70
2022-11-29T16:54:34.159Z,65.73
2022-11-29T16:57:06.148Z,65.77
2022-11-29T16:59:35.354Z,65.86
2022-11-29T17:02:03.476Z,65.88
2022-11-29T17:04:31.541Z,65.87
2022-11-29T17:07:00.744Z,65.81
2022-11-29T17:09:33.108Z,65.86
2022-11-29T17:12:02.149Z,65.88
2022-11-29T17:14:31.196Z,65.91
2022-11-29T17:17:02.668Z,65.88
2022-11-29T17:19:31.255Z,65.82
2022-11-29T17:22:00.029Z,65.90
2022-11-29T17:24:28.072Z,65.85
2022-11-29T17:26:57.464Z,65.71
2022-11-29T17:29:25.485Z,65.80
2022-11-29T17:31:53.642Z,65.86
2022-11-29T17:34:21.801Z,65.75
2022-11-29T17:36:49.816Z,65.77
2022-11-29T17:39:20.165Z,65.82
2022-11-29T17:41:48.339Z,65.88
2022-11-29T17:44:17.789Z,65.90
2022-11-29T17:46:45.864Z,66.04
2022-11-29T17:49:13.858Z,65.89
2022-11-29T17:51:57.239Z,65.75
2022-11-29T17:54:25.595Z,65.75
2022-11-29T17:56:53.688Z,65.84
2022-11-29T17:59:23.146Z,65.80
2022-11-29T18:01:51.189Z,65.89
2022-11-29T18:04:19.237Z,65.85
2022-11-29T18:06:50.222Z,65.86
2022-11-29T18:09:20.089Z,65.80
2022-11-29T18:11:50.354Z,65.80
2022-11-29T18:14:20.778Z,65.72
2022-11-29T18:16:50.563Z,65.63
2022-11-29T18:19:20.351Z,65.54
2022-11-29T18:21:48.965Z,65.66
2022-11-29T18:24:17.037Z,65.57
2022-11-29T18:26:45.151Z,65.62
2022-11-29T18:29:13.171Z,65.75
2022-11-29T18:31:42.873Z,65.69
2022-11-29T18:34:14.021Z,65.62
2022-11-29T18:36:44.376Z,65.69
2022-11-29T18:39:15.087Z,65.72
2022-11-29T18:41:44.957Z,65.70
2022-11-29T18:44:15.014Z,65.74
2022-11-29T18:46:45.137Z,65.65
2022-11-29T18:49:16.003Z,65.53
2022-11-29T18:51:45.800Z,65.67
2022-11-29T18:54:15.002Z,65.68
2022-11-29T18:56:44.675Z,65.79
2022-11-29T18:59:16.489Z,65.70
2022-11-29T19:01:46.368Z,65.53
2022-11-29T19:04:17.574Z,65.53
2022-11-29T19:06:46.481Z,65.69
2022-11-29T19:09:16.515Z,65.75
2022-11-29T19:11:44.632Z,65.61
2022-11-29T19:14:13.412Z,65.58
2022-11-29T19:16:43.197Z,65.61
2022-11-29T19:19:11.440Z,65.66
2022-11-29T19:21:41.567Z,65.69
2022-11-29T19:24:14.819Z,65.62
2022-11-29T19:26:45.476Z,65.59
2022-11-29T19:29:14.005Z,65.50
2022-11-29T19:31:42.552Z,65.42
2022-11-29T19:34:11.110Z,65.46
2022-11-29T19:36:43.281Z,65.52
2022-11-29T19:39:13.188Z,65.51
2022-11-29T19:41:43.326Z,65.41
2022-11-29T19:44:11.900Z,65.44
2022-11-29T19:46:42.365Z,65.34
2022-11-29T19:49:11.469Z,65.40
2022-11-29T19:51:40.916Z,65.44
2022-11-29T19:54:10.087Z,65.48
2022-11-29T19:56:38.920Z,65.47
2022-11-29T19:59:07.858Z,65.43
2022-11-29T20:01:43.823Z,65.44
2022-11-29T20:04:14.132Z,65.42
2022-11-29T20:06:44.341Z,65.54
2022-11-29T20:09:14.138Z,65.59
2022-11-29T20:11:42.234Z,65.49
2022-11-29T20:14:14.587Z,65.43
2022-11-29T20:16:43.639Z,65.53
2022-11-29T20:19:13.589Z,65.59
2022-11-29T20:21:45.269Z,65.39
2022-11-29T20:24:15.046Z,65.32
2022-11-29T20:26:45.230Z,65.39
2022-11-29T20:29:14.639Z,65.37
2022-11-29T20:31:49.570Z,65.39
2022-11-29T20:34:19.650Z,65.40
2022-11-29T20:37:17.876Z,65.28
2022-11-29T20:39:51.404Z,65.31
2022-11-29T20:42:50.127Z,65.11
2022-11-29T20:45:18.788Z,65.40
2022-11-29T20:47:52.129Z,65.31
2022-11-29T20:50:23.834Z,65.44
2022-11-29T20:53:04.549Z,65.10
2022-11-29T20:55:32.551Z,65.34
2022-11-29T20:58:00.572Z,65.25
2022-11-29T21:00:28.601Z,65.35
2022-11-29T21:02:56.672Z,65.45
2022-11-29T21:05:24.685Z,65.37
2022-11-29T21:07:54.223Z,65.24
2022-11-29T21:10:22.596Z,65.39
2022-11-29T21:12:51.292Z,65.37
2022-11-29T21:15:20.241Z,65.40
2022-11-29T21:17:48.888Z,65.42
2022-11-29T21:20:19.637Z,65.49
2022-11-29T21:22:59.628Z,65.48
2022-11-29T21:25:44.233Z,65.44
2022-11-29T21:28:14.169Z,65.43
2022-11-29T21:30:43.229Z,65.44
2022-11-29T21:33:12.484Z,65.40
2022-11-29T21:35:41.145Z,65.44
2022-11-29T21:38:18.856Z,65.21
2022-11-29T21:40:46.928Z,65.25
2022-11-29T21:43:14.924Z,65.28
2022-11-29T21:45:42.992Z,65.42
2022-11-29T21:48:30.973Z,65.43
2022-11-29T21:50:59.062Z,65.37
2022-11-29T21:53:28.987Z,65.37
2022-11-29T21:55:58.560Z,65.22
2022-11-29T21:58:27.356Z,64.94
2022-11-29T22:00:55.354Z,65.24
2022-11-29T22:03:23.594Z,65.27
2022-11-29T22:05:51.624Z,65.19
2022-11-29T22:08:19.658Z,65.30
2022-11-29T22:10:49.113Z,65.29
2022-11-29T22:13:17.231Z,65.34
2022-11-29T22:15:45.400Z,65.30
2022-11-29T22:18:13.413Z,65.22
2022-11-29T22:20:41.488Z,65.12
2022-11-29T22:23:09.475Z,65.14
2022-11-29T22:25:37.481Z,65.24
2022-11-29T22:28:06.985Z,65.11
2022-11-29T22:30:35.837Z,65.05
2022-11-29T22:33:06.668Z,65.19
2022-11-29T22:35:43.772Z,64.86
2022-11-29T22:38:11.824Z,65.14
2022-11-29T22:40:40.575Z,65.17
2022-11-29T22:43:09.933Z,65.21
2022-11-29T22:45:37.947Z,65.18
2022-11-29T22:48:06.278Z,65.30
2022-11-29T22:50:34.338Z,65.30
2022-11-29T22:53:02.347Z,65.23
2022-11-29T22:55:30.393Z,65.27
2022-11-29T22:57:58.381Z,65.24
2022-11-29T23:00:27.789Z,65.32
2022-11-29T23:02:58.012Z,65.27
2022-11-29T23:05:30.829Z,65.26
2022-11-29T23:08:00.700Z,65.21
2022-11-29T23:10:28.720Z,65.22
2022-11-29T23:12:56.716Z,65.27
2022-11-29T23:15:24.809Z,65.19
2022-11-29T23:17:54.462Z,65.17
2022-11-29T23:20:22.453Z,65.24
2022-11-29T23:22:50.819Z,65.35
2022-11-29T23:25:18.947Z,65.30
2022-11-29T23:27:46.953Z,65.24
2022-11-29T23:30:15.630Z,65.18
2022-11-29T23:32:43.629Z,65.11
2022-11-29T23:35:13.018Z,65.14
2022-11-29T23:37:41.045Z,65.17
2022-11-29T23:40:10.520Z,65.13
2022-11-29T23:42:39.772Z,65.08
2022-11-29T23:45:11.317Z,65.16
2022-11-29T23:47:39.322Z,65.26
2022-11-29T23:50:09.010Z,65.09
2022-11-29T23:52:38.422Z,65.01
2022-11-29T23:55:07.128Z,65.09
2022-11-29T23:57:35.117Z,65.05
